sensor_id;sensor_type;location;lat;lon;timestamp;temperature;humidity
6468;DHT22;3267;48.794;9.928;2022-08-19T04:03:18;22.50;60.00
6468;DHT22;3267;48.794;9.928;2022-08-19T04:05:45;22.50;59.80
6468;DHT22;3267;48.794;9.928;2022-08-19T04:08:13;22.50;59.90
6468;DHT22;3267;48.794;9.928;2022-08-19T04:10:41;22.50;60.30
6468;DHT22;3267;48.794;9.928;2022-08-19T04:13:07;22.40;60.50
6468;DHT22;3267;48.794;9.928;2022-08-19T04:15:39;22.80;60.90
6468;DHT22;3267;48.794;9.928;2022-08-19T04:18:10;22.40;61.10
6468;DHT22;3267;48.794;9.928;2022-08-19T04:20:44;22.40;61.30
6468;DHT22;3267;48.794;9.928;2022-08-19T04:23:11;22.40;61.70
6468;DHT22;3267;48.794;9.928;2022-08-19T04:25:39;22.30;61.10
6468;DHT22;3267;48.794;9.928;2022-08-19T04:28:05;22.30;61.60
6468;DHT22;3267;48.794;9.928;2022-08-19T04:30:38;22.30;61.20
6468;DHT22;3267;48.794;9.928;2022-08-19T04:33:04;22.30;61.70
6468;DHT22;3267;48.794;9.928;2022-08-19T04:35:36;22.30;61.30
6468;DHT22;3267;48.794;9.928;2022-08-19T04:38:02;22.70;62.00
6468;DHT22;3267;48.794;9.928;2022-08-19T04:40:28;22.30;61.20
6468;DHT22;3267;48.794;9.928;2022-08-19T04:43:12;22.30;61.10
6468;DHT22;3267;48.794;9.928;2022-08-19T04:45:39;22.30;61.00
6468;DHT22;3267;48.794;9.928;2022-08-19T04:48:05;22.30;60.80
6468;DHT22;3267;48.794;9.928;2022-08-19T04:50:31;22.20;61.00
6468;DHT22;3267;48.794;9.928;2022-08-19T04:52:57;22.20;61.60
6468;DHT22;3267;48.794;9.928;2022-08-19T04:55:23;22.20;61.60
6468;DHT22;3267;48.794;9.928;2022-08-19T04:57:50;22.50;62.20
6468;DHT22;3267;48.794;9.928;2022-08-19T05:00:16;22.20;62.10
6468;DHT22;3267;48.794;9.928;2022-08-19T05:02:42;22.20;61.90
6468;DHT22;3267;48.794;9.928;2022-08-19T05:05:09;22.20;61.70
6468;DHT22;3267;48.794;9.928;2022-08-19T05:07:35;22.30;62.10
6468;DHT22;3267;48.794;9.928;2022-08-19T05:10:03;22.20;61.70
6468;DHT22;3267;48.794;9.928;2022-08-19T05:12:30;22.10;61.90
6468;DHT22;3267;48.794;9.928;2022-08-19T05:14:57;22.20;61.60
6468;DHT22;3267;48.794;9.928;2022-08-19T05:17:22;22.10;61.80
6468;DHT22;3267;48.794;9.928;2022-08-19T05:19:48;22.20;61.60
6468;DHT22;3267;48.794;9.928;2022-08-19T05:22:33;22.10;61.50
6468;DHT22;3267;48.794;9.928;2022-08-19T05:25:05;22.10;62.50
6468;DHT22;3267;48.794;9.928;2022-08-19T05:27:32;22.20;61.70
6468;DHT22;3267;48.794;9.928;2022-08-19T05:29:58;22.20;61.60
6468;DHT22;3267;48.794;9.928;2022-08-19T05:32:24;22.20;61.50
6468;DHT22;3267;48.794;9.928;2022-08-19T05:34:50;22.20;61.10
6468;DHT22;3267;48.794;9.928;2022-08-19T05:37:16;22.30;61.30
6468;DHT22;3267;48.794;9.928;2022-08-19T05:39:42;22.20;60.90
6468;DHT22;3267;48.794;9.928;2022-08-19T05:42:10;22.40;61.10
6468;DHT22;3267;48.794;9.928;2022-08-19T05:44:40;22.20;60.80
6468;DHT22;3267;48.794;9.928;2022-08-19T05:47:08;22.30;60.30
6468;DHT22;3267;48.794;9.928;2022-08-19T05:49:35;22.30;60.70
6468;DHT22;3267;48.794;9.928;2022-08-19T05:52:04;22.20;61.00
6468;DHT22;3267;48.794;9.928;2022-08-19T05:54:31;22.30;61.00
6468;DHT22;3267;48.794;9.928;2022-08-19T05:56:57;22.80;61.50
6468;DHT22;3267;48.794;9.928;2022-08-19T05:59:23;22.30;60.70
6468;DHT22;3267;48.794;9.928;2022-08-19T06:01:51;22.30;60.90
6468;DHT22;3267;48.794;9.928;2022-08-19T06:04:18;24.50;63.00
6468;DHT22;3267;48.794;9.928;2022-08-19T06:06:49;22.60;61.80
6468;DHT22;3267;48.794;9.928;2022-08-19T06:09:17;22.30;61.00
6468;DHT22;3267;48.794;9.928;2022-08-19T06:11:46;22.30;61.30
6468;DHT22;3267;48.794;9.928;2022-08-19T06:14:22;22.30;61.20
6468;DHT22;3267;48.794;9.928;2022-08-19T06:16:49;22.30;61.20
6468;DHT22;3267;48.794;9.928;2022-08-19T06:19:19;22.30;60.60
6468;DHT22;3267;48.794;9.928;2022-08-19T06:21:47;22.30;61.00
6468;DHT22;3267;48.794;9.928;2022-08-19T06:24:16;22.30;61.60
6468;DHT22;3267;48.794;9.928;2022-08-19T06:26:45;22.30;61.20
6468;DHT22;3267;48.794;9.928;2022-08-19T06:29:12;22.20;61.00
6468;DHT22;3267;48.794;9.928;2022-08-19T06:31:42;22.70;61.70
6468;DHT22;3267;48.794;9.928;2022-08-19T06:34:08;22.30;61.70
6468;DHT22;3267;48.794;9.928;2022-08-19T06:36:40;22.20;62.40
6468;DHT22;3267;48.794;9.928;2022-08-19T06:39:16;22.20;61.40
6468;DHT22;3267;48.794;9.928;2022-08-19T06:41:48;22.20;61.40
6468;DHT22;3267;48.794;9.928;2022-08-19T06:44:15;22.20;61.40
6468;DHT22;3267;48.794;9.928;2022-08-19T06:46:41;22.30;61.00
6468;DHT22;3267;48.794;9.928;2022-08-19T06:49:08;24.00;63.40
6468;DHT22;3267;48.794;9.928;2022-08-19T06:51:43;22.20;61.70
6468;DHT22;3267;48.794;9.928;2022-08-19T06:54:10;22.50;62.80
6468;DHT22;3267;48.794;9.928;2022-08-19T06:56:37;22.20;63.00
6468;DHT22;3267;48.794;9.928;2022-08-19T06:59:09;22.10;62.20
6468;DHT22;3267;48.794;9.928;2022-08-19T07:01:38;22.10;62.70
6468;DHT22;3267;48.794;9.928;2022-08-19T07:04:08;22.20;62.60
6468;DHT22;3267;48.794;9.928;2022-08-19T07:06:36;22.20;63.00
6468;DHT22;3267;48.794;9.928;2022-08-19T07:09:04;22.10;62.60
6468;DHT22;3267;48.794;9.928;2022-08-19T07:11:31;22.10;62.90
6468;DHT22;3267;48.794;9.928;2022-08-19T07:14:00;22.20;63.20
6468;DHT22;3267;48.794;9.928;2022-08-19T07:16:26;22.10;64.10
6468;DHT22;3267;48.794;9.928;2022-08-19T07:18:53;22.00;63.40
6468;DHT22;3267;48.794;9.928;2022-08-19T07:21:25;22.40;63.80
6468;DHT22;3267;48.794;9.928;2022-08-19T07:23:56;22.00;64.00
6468;DHT22;3267;48.794;9.928;2022-08-19T07:26:29;22.00;63.70
6468;DHT22;3267;48.794;9.928;2022-08-19T07:28:56;22.60;64.80
6468;DHT22;3267;48.794;9.928;2022-08-19T07:31:24;22.00;63.90
6468;DHT22;3267;48.794;9.928;2022-08-19T07:33:52;22.10;64.20
6468;DHT22;3267;48.794;9.928;2022-08-19T07:36:20;22.40;64.40
6468;DHT22;3267;48.794;9.928;2022-08-19T07:38:48;23.10;64.60
6468;DHT22;3267;48.794;9.928;2022-08-19T07:41:18;22.00;64.70
6468;DHT22;3267;48.794;9.928;2022-08-19T07:43:45;22.60;64.70
6468;DHT22;3267;48.794;9.928;2022-08-19T07:46:12;22.00;63.50
6468;DHT22;3267;48.794;9.928;2022-08-19T07:48:43;22.00;63.60
6468;DHT22;3267;48.794;9.928;2022-08-19T07:51:14;22.00;64.30
6468;DHT22;3267;48.794;9.928;2022-08-19T07:53:40;21.90;64.40
6468;DHT22;3267;48.794;9.928;2022-08-19T07:56:07;22.00;64.20
6468;DHT22;3267;48.794;9.928;2022-08-19T07:58:35;22.00;64.40
6468;DHT22;3267;48.794;9.928;2022-08-19T08:01:04;22.00;64.70
6468;DHT22;3267;48.794;9.928;2022-08-19T08:03:33;21.90;64.90
6468;DHT22;3267;48.794;9.928;2022-08-19T08:06:17;21.90;64.50
6468;DHT22;3267;48.794;9.928;2022-08-19T08:09:04;22.00;64.40
6468;DHT22;3267;48.794;9.928;2022-08-19T08:11:51;21.90;64.40
6468;DHT22;3267;48.794;9.928;2022-08-19T08:14:28;22.00;64.90
6468;DHT22;3267;48.794;9.928;2022-08-19T08:16:55;21.90;64.90
6468;DHT22;3267;48.794;9.928;2022-08-19T08:19:23;22.20;65.10
6468;DHT22;3267;48.794;9.928;2022-08-19T08:21:49;21.90;65.00
6468;DHT22;3267;48.794;9.928;2022-08-19T08:24:16;22.00;65.80
6468;DHT22;3267;48.794;9.928;2022-08-19T08:26:42;21.90;65.80
6468;DHT22;3267;48.794;9.928;2022-08-19T08:29:10;22.00;65.40
6468;DHT22;3267;48.794;9.928;2022-08-19T08:31:37;22.00;66.00
6468;DHT22;3267;48.794;9.928;2022-08-19T08:34:03;22.00;66.50
6468;DHT22;3267;48.794;9.928;2022-08-19T08:36:29;22.00;66.10
6468;DHT22;3267;48.794;9.928;2022-08-19T08:38:59;22.00;65.50
6468;DHT22;3267;48.794;9.928;2022-08-19T08:41:34;22.00;65.40
6468;DHT22;3267;48.794;9.928;2022-08-19T08:44:01;22.00;65.90
6468;DHT22;3267;48.794;9.928;2022-08-19T08:46:39;22.10;65.90
6468;DHT22;3267;48.794;9.928;2022-08-19T08:49:18;22.10;65.80
6468;DHT22;3267;48.794;9.928;2022-08-19T08:52:05;22.10;66.30
6468;DHT22;3267;48.794;9.928;2022-08-19T08:54:40;22.10;66.40
6468;DHT22;3267;48.794;9.928;2022-08-19T08:57:14;22.10;66.00
6468;DHT22;3267;48.794;9.928;2022-08-19T08:59:43;22.10;66.10
6468;DHT22;3267;48.794;9.928;2022-08-19T09:02:12;22.10;66.20
6468;DHT22;3267;48.794;9.928;2022-08-19T09:04:38;22.10;66.50
6468;DHT22;3267;48.794;9.928;2022-08-19T09:10:08;22.10;67.00
6468;DHT22;3267;48.794;9.928;2022-08-19T09:12:47;22.10;67.50
6468;DHT22;3267;48.794;9.928;2022-08-19T09:15:24;22.10;67.20
6468;DHT22;3267;48.794;9.928;2022-08-19T09:17:52;22.10;67.60
6468;DHT22;3267;48.794;9.928;2022-08-19T09:20:23;22.10;66.90
6468;DHT22;3267;48.794;9.928;2022-08-19T09:22:49;22.10;66.80
6468;DHT22;3267;48.794;9.928;2022-08-19T09:25:19;22.10;67.00
6468;DHT22;3267;48.794;9.928;2022-08-19T09:27:49;22.10;67.80
6468;DHT22;3267;48.794;9.928;2022-08-19T09:30:21;23.30;68.40
6468;DHT22;3267;48.794;9.928;2022-08-19T09:32:47;22.10;66.90
6468;DHT22;3267;48.794;9.928;2022-08-19T09:35:14;22.10;67.10
6468;DHT22;3267;48.794;9.928;2022-08-19T09:37:42;22.20;67.50
6468;DHT22;3267;48.794;9.928;2022-08-19T09:40:08;22.10;68.20
6468;DHT22;3267;48.794;9.928;2022-08-19T09:42:35;22.20;67.30
6468;DHT22;3267;48.794;9.928;2022-08-19T09:45:01;22.30;67.60
6468;DHT22;3267;48.794;9.928;2022-08-19T09:47:29;22.20;66.90
6468;DHT22;3267;48.794;9.928;2022-08-19T09:49:55;22.20;66.80
6468;DHT22;3267;48.794;9.928;2022-08-19T09:52:21;22.20;67.10
6468;DHT22;3267;48.794;9.928;2022-08-19T09:54:47;22.20;67.40
6468;DHT22;3267;48.794;9.928;2022-08-19T09:57:13;22.30;67.60
6468;DHT22;3267;48.794;9.928;2022-08-19T09:59:39;22.20;67.70
6468;DHT22;3267;48.794;9.928;2022-08-19T10:02:05;22.20;67.30
6468;DHT22;3267;48.794;9.928;2022-08-19T10:04:31;22.30;67.10
6468;DHT22;3267;48.794;9.928;2022-08-19T10:07:16;22.30;67.40
6468;DHT22;3267;48.794;9.928;2022-08-19T10:09:41;22.20;67.10
6468;DHT22;3267;48.794;9.928;2022-08-19T10:12:08;22.30;66.50
6468;DHT22;3267;48.794;9.928;2022-08-19T10:14:34;22.30;66.60
6468;DHT22;3267;48.794;9.928;2022-08-19T10:17:01;22.90;67.60
6468;DHT22;3267;48.794;9.928;2022-08-19T10:19:28;22.30;66.50
6468;DHT22;3267;48.794;9.928;2022-08-19T10:22:10;23.20;67.60
6468;DHT22;3267;48.794;9.928;2022-08-19T10:24:39;23.50;68.40
6468;DHT22;3267;48.794;9.928;2022-08-19T10:27:05;22.40;67.00
6468;DHT22;3267;48.794;9.928;2022-08-19T10:29:32;22.20;67.20
6468;DHT22;3267;48.794;9.928;2022-08-19T10:32:05;22.20;67.20
6468;DHT22;3267;48.794;9.928;2022-08-19T10:34:33;22.20;67.20
6468;DHT22;3267;48.794;9.928;2022-08-19T10:37:00;22.20;66.90
6468;DHT22;3267;48.794;9.928;2022-08-19T10:39:26;22.20;66.50
6468;DHT22;3267;48.794;9.928;2022-08-19T10:41:55;22.20;66.90
6468;DHT22;3267;48.794;9.928;2022-08-19T10:44:21;22.20;66.50
6468;DHT22;3267;48.794;9.928;2022-08-19T10:46:48;22.20;66.50
6468;DHT22;3267;48.794;9.928;2022-08-19T10:49:15;22.20;66.60
6468;DHT22;3267;48.794;9.928;2022-08-19T10:51:41;22.20;66.50
6468;DHT22;3267;48.794;9.928;2022-08-19T10:54:27;22.20;66.30
6468;DHT22;3267;48.794;9.928;2022-08-19T10:57:13;22.20;66.20
6468;DHT22;3267;48.794;9.928;2022-08-19T10:59:39;22.20;66.10
6468;DHT22;3267;48.794;9.928;2022-08-19T11:02:09;23.40;67.30
6468;DHT22;3267;48.794;9.928;2022-08-19T11:04:36;22.20;66.50
6468;DHT22;3267;48.794;9.928;2022-08-19T11:07:04;22.20;66.60
6468;DHT22;3267;48.794;9.928;2022-08-19T11:09:31;23.20;67.30
6468;DHT22;3267;48.794;9.928;2022-08-19T11:11:57;22.20;66.50
6468;DHT22;3267;48.794;9.928;2022-08-19T11:14:23;22.20;66.60
6468;DHT22;3267;48.794;9.928;2022-08-19T11:16:52;22.10;66.20
6468;DHT22;3267;48.794;9.928;2022-08-19T11:19:21;22.20;66.60
6468;DHT22;3267;48.794;9.928;2022-08-19T11:21:50;22.20;66.60
6468;DHT22;3267;48.794;9.928;2022-08-19T11:24:19;22.10;67.10
6468;DHT22;3267;48.794;9.928;2022-08-19T11:26:47;22.10;67.60
6468;DHT22;3267;48.794;9.928;2022-08-19T11:29:20;22.10;67.30
6468;DHT22;3267;48.794;9.928;2022-08-19T11:31:47;23.80;70.40
6468;DHT22;3267;48.794;9.928;2022-08-19T11:34:19;22.00;69.40
6468;DHT22;3267;48.794;9.928;2022-08-19T11:36:47;22.20;69.30
6468;DHT22;3267;48.794;9.928;2022-08-19T11:39:15;21.90;68.40
6468;DHT22;3267;48.794;9.928;2022-08-19T11:41:41;22.00;68.90
6468;DHT22;3267;48.794;9.928;2022-08-19T11:44:07;21.90;68.10
6468;DHT22;3267;48.794;9.928;2022-08-19T11:46:35;21.90;68.40
6468;DHT22;3267;48.794;9.928;2022-08-19T11:49:01;21.80;68.50
6468;DHT22;3267;48.794;9.928;2022-08-19T11:51:29;21.90;68.50
6468;DHT22;3267;48.794;9.928;2022-08-19T11:53:57;21.90;68.40
6468;DHT22;3267;48.794;9.928;2022-08-19T11:56:24;21.80;68.30
6468;DHT22;3267;48.794;9.928;2022-08-19T11:58:52;21.90;68.50
6468;DHT22;3267;48.794;9.928;2022-08-19T12:01:20;22.60;68.70
6468;DHT22;3267;48.794;9.928;2022-08-19T12:03:48;21.90;67.90
6468;DHT22;3267;48.794;9.928;2022-08-19T12:06:19;21.80;67.90
6468;DHT22;3267;48.794;9.928;2022-08-19T12:08:45;21.80;68.10
6468;DHT22;3267;48.794;9.928;2022-08-19T12:11:13;21.80;67.90
6468;DHT22;3267;48.794;9.928;2022-08-19T12:13:40;21.90;68.00
6468;DHT22;3267;48.794;9.928;2022-08-19T12:16:11;21.90;68.40
6468;DHT22;3267;48.794;9.928;2022-08-19T12:18:39;21.80;68.50
6468;DHT22;3267;48.794;9.928;2022-08-19T12:21:06;21.90;68.30
6468;DHT22;3267;48.794;9.928;2022-08-19T12:23:32;21.80;67.90
6468;DHT22;3267;48.794;9.928;2022-08-19T12:25:58;21.90;67.30
6468;DHT22;3267;48.794;9.928;2022-08-19T12:28:24;23.20;69.00
6468;DHT22;3267;48.794;9.928;2022-08-19T12:30:51;21.90;67.70
6468;DHT22;3267;48.794;9.928;2022-08-19T12:33:18;21.80;68.00
6468;DHT22;3267;48.794;9.928;2022-08-19T12:35:45;21.90;67.90
6468;DHT22;3267;48.794;9.928;2022-08-19T12:38:15;21.80;68.80
6468;DHT22;3267;48.794;9.928;2022-08-19T12:40:41;21.80;68.80
6468;DHT22;3267;48.794;9.928;2022-08-19T12:43:07;21.70;69.20
6468;DHT22;3267;48.794;9.928;2022-08-19T12:45:34;21.70;69.00
6468;DHT22;3267;48.794;9.928;2022-08-19T12:48:00;21.90;68.90
6468;DHT22;3267;48.794;9.928;2022-08-19T12:50:25;21.70;69.20
6468;DHT22;3267;48.794;9.928;2022-08-19T12:52:51;22.70;69.50
6468;DHT22;3267;48.794;9.928;2022-08-19T12:55:18;21.70;68.30
6468;DHT22;3267;48.794;9.928;2022-08-19T12:57:44;21.70;68.30
6468;DHT22;3267;48.794;9.928;2022-08-19T13:00:16;21.70;68.20
6468;DHT22;3267;48.794;9.928;2022-08-19T13:02:44;21.70;68.80
6468;DHT22;3267;48.794;9.928;2022-08-19T13:05:17;21.70;68.30
6468;DHT22;3267;48.794;9.928;2022-08-19T13:07:46;21.70;68.30
6468;DHT22;3267;48.794;9.928;2022-08-19T13:10:17;22.00;69.70
6468;DHT22;3267;48.794;9.928;2022-08-19T13:12:44;21.60;69.50
6468;DHT22;3267;48.794;9.928;2022-08-19T13:15:12;21.60;69.40
6468;DHT22;3267;48.794;9.928;2022-08-19T13:17:39;21.60;68.90
6468;DHT22;3267;48.794;9.928;2022-08-19T13:20:09;21.60;69.20
6468;DHT22;3267;48.794;9.928;2022-08-19T13:22:36;21.60;69.20
6468;DHT22;3267;48.794;9.928;2022-08-19T13:25:03;21.60;68.90
6468;DHT22;3267;48.794;9.928;2022-08-19T13:27:29;21.60;69.20
6468;DHT22;3267;48.794;9.928;2022-08-19T13:29:55;21.60;68.90
6468;DHT22;3267;48.794;9.928;2022-08-19T13:32:39;21.60;69.10
6468;DHT22;3267;48.794;9.928;2022-08-19T13:35:24;22.50;69.80
6468;DHT22;3267;48.794;9.928;2022-08-19T13:37:50;21.70;68.20
6468;DHT22;3267;48.794;9.928;2022-08-19T13:40:18;21.60;68.10
6468;DHT22;3267;48.794;9.928;2022-08-19T13:42:46;21.70;68.30
6468;DHT22;3267;48.794;9.928;2022-08-19T13:45:15;21.70;68.40
6468;DHT22;3267;48.794;9.928;2022-08-19T13:47:42;21.70;67.40
6468;DHT22;3267;48.794;9.928;2022-08-19T13:50:15;23.20;69.20
6468;DHT22;3267;48.794;9.928;2022-08-19T13:52:41;21.80;68.10
6468;DHT22;3267;48.794;9.928;2022-08-19T13:55:09;21.70;67.90
6468;DHT22;3267;48.794;9.928;2022-08-19T13:57:35;21.80;68.30
6468;DHT22;3267;48.794;9.928;2022-08-19T14:00:12;21.80;67.40
6468;DHT22;3267;48.794;9.928;2022-08-19T14:02:39;21.80;68.10
6468;DHT22;3267;48.794;9.928;2022-08-19T14:05:08;21.90;67.90
6468;DHT22;3267;48.794;9.928;2022-08-19T14:07:35;21.90;68.00
6468;DHT22;3267;48.794;9.928;2022-08-19T14:10:02;21.90;68.00
6468;DHT22;3267;48.794;9.928;2022-08-19T14:12:29;21.90;68.00
6468;DHT22;3267;48.794;9.928;2022-08-19T14:14:55;22.20;67.60
6468;DHT22;3267;48.794;9.928;2022-08-19T14:17:20;21.90;67.10
6468;DHT22;3267;48.794;9.928;2022-08-19T14:19:46;22.00;66.80
6468;DHT22;3267;48.794;9.928;2022-08-19T14:22:13;22.00;66.50
6468;DHT22;3267;48.794;9.928;2022-08-19T14:24:38;22.10;66.00
6468;DHT22;3267;48.794;9.928;2022-08-19T14:27:07;22.90;65.90
6468;DHT22;3267;48.794;9.928;2022-08-19T14:29:33;22.20;65.00
6468;DHT22;3267;48.794;9.928;2022-08-19T14:32:00;24.00;65.80
6468;DHT22;3267;48.794;9.928;2022-08-19T14:34:26;22.20;65.20
6468;DHT22;3267;48.794;9.928;2022-08-19T14:36:52;22.20;65.40
6468;DHT22;3267;48.794;9.928;2022-08-19T14:39:18;22.40;65.50
6468;DHT22;3267;48.794;9.928;2022-08-19T14:41:44;22.20;65.00
6468;DHT22;3267;48.794;9.928;2022-08-19T14:44:11;22.20;65.10
6468;DHT22;3267;48.794;9.928;2022-08-19T14:46:38;22.20;65.90
6468;DHT22;3267;48.794;9.928;2022-08-19T14:49:04;24.10;67.80
6468;DHT22;3267;48.794;9.928;2022-08-19T14:51:30;22.20;65.50
6468;DHT22;3267;48.794;9.928;2022-08-19T14:53:56;22.30;65.10
6468;DHT22;3267;48.794;9.928;2022-08-19T14:56:25;22.30;64.90
6468;DHT22;3267;48.794;9.928;2022-08-19T14:58:51;22.40;65.50
6468;DHT22;3267;48.794;9.928;2022-08-19T15:01:18;22.40;65.50
6468;DHT22;3267;48.794;9.928;2022-08-19T15:03:45;22.30;65.60
6468;DHT22;3267;48.794;9.928;2022-08-19T15:06:12;22.30;65.40
6468;DHT22;3267;48.794;9.928;2022-08-19T15:08:40;22.30;65.20
6468;DHT22;3267;48.794;9.928;2022-08-19T15:11:12;23.10;65.70
6468;DHT22;3267;48.794;9.928;2022-08-19T15:13:40;22.40;64.90
6468;DHT22;3267;48.794;9.928;2022-08-19T15:16:06;22.50;64.60
6468;DHT22;3267;48.794;9.928;2022-08-19T15:18:32;23.10;65.40
6468;DHT22;3267;48.794;9.928;2022-08-19T15:21:00;22.50;65.30
6468;DHT22;3267;48.794;9.928;2022-08-19T15:23:26;22.50;65.40
6468;DHT22;3267;48.794;9.928;2022-08-19T15:25:52;22.60;65.30
6468;DHT22;3267;48.794;9.928;2022-08-19T15:28:25;23.90;66.60
6468;DHT22;3267;48.794;9.928;2022-08-19T15:30:51;22.50;65.70
6468;DHT22;3267;48.794;9.928;2022-08-19T15:33:18;22.50;65.90
6468;DHT22;3267;48.794;9.928;2022-08-19T15:35:47;23.20;67.00
6468;DHT22;3267;48.794;9.928;2022-08-19T15:38:13;23.20;67.00
6468;DHT22;3267;48.794;9.928;2022-08-19T15:40:40;22.40;66.10
6468;DHT22;3267;48.794;9.928;2022-08-19T15:43:06;24.20;67.90
6468;DHT22;3267;48.794;9.928;2022-08-19T15:45:33;22.40;66.20
6468;DHT22;3267;48.794;9.928;2022-08-19T15:48:00;22.30;66.30
6468;DHT22;3267;48.794;9.928;2022-08-19T15:50:55;24.50;69.20
6468;DHT22;3267;48.794;9.928;2022-08-19T15:53:21;22.20;67.00
6468;DHT22;3267;48.794;9.928;2022-08-19T15:55:46;23.30;67.00
6468;DHT22;3267;48.794;9.928;2022-08-19T15:58:14;22.30;65.60
6468;DHT22;3267;48.794;9.928;2022-08-19T16:01:01;22.50;66.00
6468;DHT22;3267;48.794;9.928;2022-08-19T16:03:46;22.30;65.60
6468;DHT22;3267;48.794;9.928;2022-08-19T16:06:32;22.30;65.30
6468;DHT22;3267;48.794;9.928;2022-08-19T16:09:01;22.30;65.90
6468;DHT22;3267;48.794;9.928;2022-08-19T16:11:29;22.30;66.20
6468;DHT22;3267;48.794;9.928;2022-08-19T16:13:57;22.20;66.00
6468;DHT22;3267;48.794;9.928;2022-08-19T16:16:26;22.20;66.00
6468;DHT22;3267;48.794;9.928;2022-08-19T16:18:58;22.40;66.20
6468;DHT22;3267;48.794;9.928;2022-08-19T16:21:26;22.30;66.30
6468;DHT22;3267;48.794;9.928;2022-08-19T16:23:59;22.20;67.10
6468;DHT22;3267;48.794;9.928;2022-08-19T16:26:26;22.10;66.90
6468;DHT22;3267;48.794;9.928;2022-08-19T16:28:59;22.20;66.70
6468;DHT22;3267;48.794;9.928;2022-08-19T16:31:25;22.10;66.60
6468;DHT22;3267;48.794;9.928;2022-08-19T16:33:52;22.90;66.90
6468;DHT22;3267;48.794;9.928;2022-08-19T16:36:18;22.20;66.10
6468;DHT22;3267;48.794;9.928;2022-08-19T16:38:43;23.10;67.00
6468;DHT22;3267;48.794;9.928;2022-08-19T16:41:12;22.20;65.80
6468;DHT22;3267;48.794;9.928;2022-08-19T16:43:41;22.20;65.30
6468;DHT22;3267;48.794;9.928;2022-08-19T16:46:08;23.40;66.20
6468;DHT22;3267;48.794;9.928;2022-08-19T16:48:35;22.40;64.70
6468;DHT22;3267;48.794;9.928;2022-08-19T16:51:04;22.40;65.00
6468;DHT22;3267;48.794;9.928;2022-08-19T16:53:35;22.50;64.60
6468;DHT22;3267;48.794;9.928;2022-08-19T16:56:03;22.50;64.90
6468;DHT22;3267;48.794;9.928;2022-08-19T16:58:29;22.40;65.50
6468;DHT22;3267;48.794;9.928;2022-08-19T17:01:00;22.40;65.10
6468;DHT22;3267;48.794;9.928;2022-08-19T17:03:27;22.40;65.80
6468;DHT22;3267;48.794;9.928;2022-08-19T17:05:55;22.80;65.90
6468;DHT22;3267;48.794;9.928;2022-08-19T17:08:23;24.70;67.80
6468;DHT22;3267;48.794;9.928;2022-08-19T17:10:52;22.40;65.30
6468;DHT22;3267;48.794;9.928;2022-08-19T17:13:23;22.50;65.40
6468;DHT22;3267;48.794;9.928;2022-08-19T17:15:50;22.60;66.60
6468;DHT22;3267;48.794;9.928;2022-08-19T17:18:16;22.90;66.60
6468;DHT22;3267;48.794;9.928;2022-08-19T17:20:43;24.00;67.50
6468;DHT22;3267;48.794;9.928;2022-08-19T17:23:11;22.50;66.40
6468;DHT22;3267;48.794;9.928;2022-08-19T17:25:37;22.60;66.50
6468;DHT22;3267;48.794;9.928;2022-08-19T17:28:14;22.60;67.20
6468;DHT22;3267;48.794;9.928;2022-08-19T17:30:40;22.60;67.50
6468;DHT22;3267;48.794;9.928;2022-08-19T17:33:06;23.10;67.90
6468;DHT22;3267;48.794;9.928;2022-08-19T17:35:33;22.70;67.60
6468;DHT22;3267;48.794;9.928;2022-08-19T17:38:07;22.60;67.30
6468;DHT22;3267;48.794;9.928;2022-08-19T17:40:34;22.80;67.60
6468;DHT22;3267;48.794;9.928;2022-08-19T17:43:00;22.30;67.00
6468;DHT22;3267;48.794;9.928;2022-08-19T17:45:27;22.30;67.00
6468;DHT22;3267;48.794;9.928;2022-08-19T17:47:53;23.10;67.60
6468;DHT22;3267;48.794;9.928;2022-08-19T17:50:20;23.00;68.30
6468;DHT22;3267;48.794;9.928;2022-08-19T17:52:47;22.20;66.30
6468;DHT22;3267;48.794;9.928;2022-08-19T17:55:14;22.20;66.50
6468;DHT22;3267;48.794;9.928;2022-08-19T17:57:40;22.20;66.50
6468;DHT22;3267;48.794;9.928;2022-08-19T18:00:08;22.10;66.50
6468;DHT22;3267;48.794;9.928;2022-08-19T18:02:50;22.10;66.50
6468;DHT22;3267;48.794;9.928;2022-08-19T18:05:18;22.10;66.80
6468;DHT22;3267;48.794;9.928;2022-08-19T18:07:44;22.10;66.70
6468;DHT22;3267;48.794;9.928;2022-08-19T18:10:11;22.00;66.50
6468;DHT22;3267;48.794;9.928;2022-08-19T18:12:37;22.00;66.50
6468;DHT22;3267;48.794;9.928;2022-08-19T18:15:05;22.00;66.40
6468;DHT22;3267;48.794;9.928;2022-08-19T18:17:32;22.00;66.30
6468;DHT22;3267;48.794;9.928;2022-08-19T18:19:57;22.10;66.00
6468;DHT22;3267;48.794;9.928;2022-08-19T18:22:31;22.10;65.90
6468;DHT22;3267;48.794;9.928;2022-08-19T18:25:00;22.10;66.20
6468;DHT22;3267;48.794;9.928;2022-08-19T18:27:27;22.20;66.10
6468;DHT22;3267;48.794;9.928;2022-08-19T18:29:53;22.30;66.70
6468;DHT22;3267;48.794;9.928;2022-08-19T18:32:22;22.20;66.50
6468;DHT22;3267;48.794;9.928;2022-08-19T18:34:51;22.20;66.50
6468;DHT22;3267;48.794;9.928;2022-08-19T18:37:18;22.70;67.70
6468;DHT22;3267;48.794;9.928;2022-08-19T18:39:44;22.30;67.10
6468;DHT22;3267;48.794;9.928;2022-08-19T18:42:29;22.20;67.90
6468;DHT22;3267;48.794;9.928;2022-08-19T18:45:13;22.30;68.30
6468;DHT22;3267;48.794;9.928;2022-08-19T18:47:58;22.50;69.10
6468;DHT22;3267;48.794;9.928;2022-08-19T18:50:42;22.70;69.20
6468;DHT22;3267;48.794;9.928;2022-08-19T18:53:09;22.60;68.60
6468;DHT22;3267;48.794;9.928;2022-08-19T18:55:35;23.20;69.00
6468;DHT22;3267;48.794;9.928;2022-08-19T18:58:02;22.50;68.00
6468;DHT22;3267;48.794;9.928;2022-08-19T19:00:29;22.40;67.70
6468;DHT22;3267;48.794;9.928;2022-08-19T19:02:57;22.50;68.70
6468;DHT22;3267;48.794;9.928;2022-08-19T19:05:23;22.60;68.90
6468;DHT22;3267;48.794;9.928;2022-08-19T19:07:50;22.50;69.20
6468;DHT22;3267;48.794;9.928;2022-08-19T19:10:17;22.50;69.00
6468;DHT22;3267;48.794;9.928;2022-08-19T19:12:43;22.60;69.40
6468;DHT22;3267;48.794;9.928;2022-08-19T19:15:10;22.50;69.10
6468;DHT22;3267;48.794;9.928;2022-08-19T19:17:37;22.50;69.00
6468;DHT22;3267;48.794;9.928;2022-08-19T19:20:05;22.40;68.80
6468;DHT22;3267;48.794;9.928;2022-08-19T19:22:31;22.40;69.40
6468;DHT22;3267;48.794;9.928;2022-08-19T19:24:56;22.40;68.80
6468;DHT22;3267;48.794;9.928;2022-08-19T19:27:24;22.70;69.80
6468;DHT22;3267;48.794;9.928;2022-08-19T19:29:50;22.50;69.50
6468;DHT22;3267;48.794;9.928;2022-08-19T19:32:22;24.20;71.00
6468;DHT22;3267;48.794;9.928;2022-08-19T19:34:49;22.40;69.30
6468;DHT22;3267;48.794;9.928;2022-08-19T19:37:15;23.90;70.20
6468;DHT22;3267;48.794;9.928;2022-08-19T19:39:42;22.50;69.50
6468;DHT22;3267;48.794;9.928;2022-08-19T19:42:09;22.40;69.30
6468;DHT22;3267;48.794;9.928;2022-08-19T19:44:39;22.30;68.60
6468;DHT22;3267;48.794;9.928;2022-08-19T19:47:05;22.20;68.30
6468;DHT22;3267;48.794;9.928;2022-08-19T19:49:31;22.20;68.20
6468;DHT22;3267;48.794;9.928;2022-08-19T19:51:58;22.50;68.40
6468;DHT22;3267;48.794;9.928;2022-08-19T19:54:24;22.20;68.00
6468;DHT22;3267;48.794;9.928;2022-08-19T19:56:51;22.10;67.90
6468;DHT22;3267;48.794;9.928;2022-08-19T19:59:17;22.00;67.90
6468;DHT22;3267;48.794;9.928;2022-08-19T20:01:43;22.40;68.40
6468;DHT22;3267;48.794;9.928;2022-08-19T20:04:11;21.90;67.90
6468;DHT22;3267;48.794;9.928;2022-08-19T20:06:38;21.90;67.90
6468;DHT22;3267;48.794;9.928;2022-08-19T20:09:03;21.90;67.30
6468;DHT22;3267;48.794;9.928;2022-08-19T20:11:37;21.80;67.40
6468;DHT22;3267;48.794;9.928;2022-08-19T20:14:07;21.90;67.80
6468;DHT22;3267;48.794;9.928;2022-08-19T20:16:33;22.30;67.80